Bellevue, New York
Current Conditions -  °F | °C
As of 5:51 AM on Saturday 20 Dec 2014 (Local Time) from KALB Reporting Station
Broken Clouds Broken Clouds  
Wind Chill: 18°   Ceiling: 2000
Heat Index: 25°   Visibility: 10mi
Dew Point: 16°   Wind: 6mph
Humidity: 69%   Direction: 340°NNW
Pressure: 30.29"   Gusts: NA
Location:  42.8133°N, 74.0348°W
Report Text: KALB 201051Z 34005KT 10SM BKN020 M04/M09 A3029 RMK AO2 SLP260 BKN V OVC T10391089
Loading
Personal Weather Stations






























Interactive Weather Map New forecast layout! Learn more

10-Day Weather Forecast

Advertisements
Track Severe Weather on mobile